Terminal Aerodrome Forecast
Issued by NWS Wilmington, OH

Current Version | Previous Version | Graphics & Text | Print | Product List | Glossary On
Versions: 1 2 3 4 5 6 7 8 9 10 11 12 13 14 15 16 17 18 19 20 21 22 23 24 25 26 27 28 29 30 31 32 33 34 35
308
FTUS41 KILN 231730 AAC
TAFILN
TAF AMD
KILN 231730Z 2318/2418 22012G22KT 1SM SHRA VCTS OVC015CB
      TEMPO 2318/2320 26024G42KT 1/4SM +RA BKN012
     FM240100 21005KT P6SM VCSH OVC023
     FM240500 30006KT P6SM BKN045
     FM241000 30006KT P6SM SCT250
     FM241400 28012G20KT P6SM SCT040=

USA.gov is the U.S. government's official web portal to all federal, state and local government web resources and services.